sensor_id;sensor_type;location;lat;lon;timestamp;P1;durP1;ratioP1;P2;durP2;ratioP2
62724;SDS011;49026;52.600;4.694;2022-12-20T00:01:21;7.53;;;3.30;;
62724;SDS011;49026;52.600;4.694;2022-12-20T00:03:52;8.73;;;2.63;;
62724;SDS011;49026;52.600;4.694;2022-12-20T00:06:20;7.65;;;2.60;;
62724;SDS011;49026;52.600;4.694;2022-12-20T00:08:46;7.75;;;3.10;;
62724;SDS011;49026;52.600;4.694;2022-12-20T00:11:16;7.80;;;2.75;;
62724;SDS011;49026;52.600;4.694;2022-12-20T00:13:45;9.40;;;2.40;;
62724;SDS011;49026;52.600;4.694;2022-12-20T00:16:18;9.70;;;2.90;;
62724;SDS011;49026;52.600;4.694;2022-12-20T00:18:52;8.38;;;3.20;;
62724;SDS011;49026;52.600;4.694;2022-12-20T00:21:19;6.03;;;3.15;;
62724;SDS011;49026;52.600;4.694;2022-12-20T00:23:45;6.32;;;3.22;;
62724;SDS011;49026;52.600;4.694;2022-12-20T00:26:11;7.18;;;2.60;;
62724;SDS011;49026;52.600;4.694;2022-12-20T00:28:41;10.90;;;3.58;;
62724;SDS011;49026;52.600;4.694;2022-12-20T00:31:09;6.45;;;3.08;;
62724;SDS011;49026;52.600;4.694;2022-12-20T00:33:37;5.45;;;2.88;;
62724;SDS011;49026;52.600;4.694;2022-12-20T00:36:04;6.20;;;2.55;;
62724;SDS011;49026;52.600;4.694;2022-12-20T00:38:33;6.28;;;3.00;;
62724;SDS011;49026;52.600;4.694;2022-12-20T00:43:31;9.93;;;3.20;;
62724;SDS011;49026;52.600;4.694;2022-12-20T00:45:57;5.95;;;2.58;;
62724;SDS011;49026;52.600;4.694;2022-12-20T00:48:23;7.13;;;2.67;;
62724;SDS011;49026;52.600;4.694;2022-12-20T00:50:49;5.38;;;2.70;;
62724;SDS011;49026;52.600;4.694;2022-12-20T00:53:15;7.47;;;2.90;;
62724;SDS011;49026;52.600;4.694;2022-12-20T00:55:41;7.90;;;2.80;;
62724;SDS011;49026;52.600;4.694;2022-12-20T00:58:08;10.25;;;2.70;;
62724;SDS011;49026;52.600;4.694;2022-12-20T01:00:33;10.45;;;3.15;;
62724;SDS011;49026;52.600;4.694;2022-12-20T01:03:01;5.80;;;2.50;;
62724;SDS011;49026;52.600;4.694;2022-12-20T01:05:27;6.57;;;3.08;;
62724;SDS011;49026;52.600;4.694;2022-12-20T01:07:52;7.47;;;3.08;;
62724;SDS011;49026;52.600;4.694;2022-12-20T01:10:18;9.70;;;3.15;;
62724;SDS011;49026;52.600;4.694;2022-12-20T01:12:46;6.28;;;2.50;;
62724;SDS011;49026;52.600;4.694;2022-12-20T01:15:11;7.70;;;3.05;;
62724;SDS011;49026;52.600;4.694;2022-12-20T01:17:40;5.78;;;2.88;;
62724;SDS011;49026;52.600;4.694;2022-12-20T01:20:05;6.05;;;2.58;;
62724;SDS011;49026;52.600;4.694;2022-12-20T01:22:31;7.55;;;2.90;;
62724;SDS011;49026;52.600;4.694;2022-12-20T01:24:57;9.90;;;3.70;;
62724;SDS011;49026;52.600;4.694;2022-12-20T01:27:24;7.97;;;3.28;;
62724;SDS011;49026;52.600;4.694;2022-12-20T01:29:50;7.88;;;3.40;;
62724;SDS011;49026;52.600;4.694;2022-12-20T01:32:15;7.93;;;3.08;;
62724;SDS011;49026;52.600;4.694;2022-12-20T01:34:40;5.60;;;2.83;;
62724;SDS011;49026;52.600;4.694;2022-12-20T01:37:06;11.77;;;3.20;;
62724;SDS011;49026;52.600;4.694;2022-12-20T01:39:31;8.27;;;3.72;;
62724;SDS011;49026;52.600;4.694;2022-12-20T01:41:56;7.90;;;3.28;;
62724;SDS011;49026;52.600;4.694;2022-12-20T01:46:47;5.38;;;2.55;;
62724;SDS011;49026;52.600;4.694;2022-12-20T01:49:18;8.27;;;3.22;;
62724;SDS011;49026;52.600;4.694;2022-12-20T01:51:49;5.50;;;3.33;;
62724;SDS011;49026;52.600;4.694;2022-12-20T01:54:27;6.55;;;3.33;;
62724;SDS011;49026;52.600;4.694;2022-12-20T01:57:00;11.38;;;4.03;;
62724;SDS011;49026;52.600;4.694;2022-12-20T01:59:28;8.17;;;3.07;;
62724;SDS011;49026;52.600;4.694;2022-12-20T02:01:57;17.45;;;3.50;;
62724;SDS011;49026;52.600;4.694;2022-12-20T02:04:23;6.05;;;2.72;;
62724;SDS011;49026;52.600;4.694;2022-12-20T02:06:49;7.90;;;2.47;;
62724;SDS011;49026;52.600;4.694;2022-12-20T02:09:14;12.05;;;3.05;;
62724;SDS011;49026;52.600;4.694;2022-12-20T02:22:51;7.10;;;3.17;;
62724;SDS011;49026;52.600;4.694;2022-12-20T02:27:59;6.35;;;3.00;;
62724;SDS011;49026;52.600;4.694;2022-12-20T02:30:39;5.68;;;3.22;;
62724;SDS011;49026;52.600;4.694;2022-12-20T02:33:09;14.50;;;4.43;;
62724;SDS011;49026;52.600;4.694;2022-12-20T02:35:37;9.40;;;3.35;;
62724;SDS011;49026;52.600;4.694;2022-12-20T02:40:55;5.20;;;3.08;;
62724;SDS011;49026;52.600;4.694;2022-12-20T02:43:25;5.57;;;3.15;;
62724;SDS011;49026;52.600;4.694;2022-12-20T02:46:11;11.40;;;4.47;;
62724;SDS011;49026;52.600;4.694;2022-12-20T02:48:40;5.45;;;3.30;;
62724;SDS011;49026;52.600;4.694;2022-12-20T02:51:08;4.68;;;3.17;;
62724;SDS011;49026;52.600;4.694;2022-12-20T02:53:35;6.63;;;3.78;;
62724;SDS011;49026;52.600;4.694;2022-12-20T02:56:19;7.82;;;3.70;;
62724;SDS011;49026;52.600;4.694;2022-12-20T02:59:00;6.63;;;3.00;;
62724;SDS011;49026;52.600;4.694;2022-12-20T03:04:09;7.22;;;3.60;;
62724;SDS011;49026;52.600;4.694;2022-12-20T03:06:35;6.70;;;3.85;;
62724;SDS011;49026;52.600;4.694;2022-12-20T03:09:00;6.15;;;3.58;;
62724;SDS011;49026;52.600;4.694;2022-12-20T03:11:26;10.02;;;4.53;;
62724;SDS011;49026;52.600;4.694;2022-12-20T03:13:54;7.03;;;4.53;;
62724;SDS011;49026;52.600;4.694;2022-12-20T03:16:19;11.55;;;5.03;;
62724;SDS011;49026;52.600;4.694;2022-12-20T03:18:47;8.85;;;4.13;;
62724;SDS011;49026;52.600;4.694;2022-12-20T03:21:12;10.18;;;4.32;;
62724;SDS011;49026;52.600;4.694;2022-12-20T03:23:37;7.55;;;4.38;;
62724;SDS011;49026;52.600;4.694;2022-12-20T03:26:03;11.55;;;3.90;;
62724;SDS011;49026;52.600;4.694;2022-12-20T03:28:28;6.68;;;3.13;;
62724;SDS011;49026;52.600;4.694;2022-12-20T03:30:54;5.10;;;2.40;;
62724;SDS011;49026;52.600;4.694;2022-12-20T03:33:19;8.10;;;3.80;;
62724;SDS011;49026;52.600;4.694;2022-12-20T03:35:45;13.32;;;4.35;;
62724;SDS011;49026;52.600;4.694;2022-12-20T03:38:11;10.35;;;4.50;;
62724;SDS011;49026;52.600;4.694;2022-12-20T03:40:36;6.38;;;4.22;;
62724;SDS011;49026;52.600;4.694;2022-12-20T03:43:02;4.47;;;3.05;;
62724;SDS011;49026;52.600;4.694;2022-12-20T03:45:27;10.43;;;4.43;;
62724;SDS011;49026;52.600;4.694;2022-12-20T03:47:52;7.05;;;3.60;;
62724;SDS011;49026;52.600;4.694;2022-12-20T03:50:18;10.07;;;4.22;;
62724;SDS011;49026;52.600;4.694;2022-12-20T03:52:43;15.25;;;4.28;;
62724;SDS011;49026;52.600;4.694;2022-12-20T03:55:08;9.18;;;2.90;;
62724;SDS011;49026;52.600;4.694;2022-12-20T03:57:36;8.23;;;3.67;;
62724;SDS011;49026;52.600;4.694;2022-12-20T04:00:04;5.90;;;3.58;;
62724;SDS011;49026;52.600;4.694;2022-12-20T04:02:30;7.13;;;3.35;;
62724;SDS011;49026;52.600;4.694;2022-12-20T04:04:55;7.85;;;3.50;;
62724;SDS011;49026;52.600;4.694;2022-12-20T04:07:21;5.45;;;3.40;;
62724;SDS011;49026;52.600;4.694;2022-12-20T04:09:48;6.18;;;2.42;;
62724;SDS011;49026;52.600;4.694;2022-12-20T04:14:41;9.70;;;3.67;;
62724;SDS011;49026;52.600;4.694;2022-12-20T04:17:07;5.10;;;2.75;;
62724;SDS011;49026;52.600;4.694;2022-12-20T04:19:32;5.63;;;3.05;;
62724;SDS011;49026;52.600;4.694;2022-12-20T04:22:00;5.85;;;2.97;;
62724;SDS011;49026;52.600;4.694;2022-12-20T04:24:25;5.45;;;3.40;;
62724;SDS011;49026;52.600;4.694;2022-12-20T04:26:51;5.30;;;3.22;;
62724;SDS011;49026;52.600;4.694;2022-12-20T04:29:19;9.30;;;3.65;;
62724;SDS011;49026;52.600;4.694;2022-12-20T04:31:44;7.38;;;3.17;;
62724;SDS011;49026;52.600;4.694;2022-12-20T04:34:09;5.75;;;3.45;;
62724;SDS011;49026;52.600;4.694;2022-12-20T04:36:35;5.65;;;3.25;;
62724;SDS011;49026;52.600;4.694;2022-12-20T04:39:00;6.75;;;3.20;;
62724;SDS011;49026;52.600;4.694;2022-12-20T04:41:25;5.65;;;3.05;;
62724;SDS011;49026;52.600;4.694;2022-12-20T04:43:51;4.25;;;2.60;;
62724;SDS011;49026;52.600;4.694;2022-12-20T04:46:18;2.88;;;1.92;;
62724;SDS011;49026;52.600;4.694;2022-12-20T04:48:44;4.20;;;2.00;;
62724;SDS011;49026;52.600;4.694;2022-12-20T04:51:10;8.70;;;3.83;;
62724;SDS011;49026;52.600;4.694;2022-12-20T04:53:35;4.30;;;2.67;;
62724;SDS011;49026;52.600;4.694;2022-12-20T04:56:20;7.38;;;3.20;;
62724;SDS011;49026;52.600;4.694;2022-12-20T04:58:53;6.85;;;3.13;;
62724;SDS011;49026;52.600;4.694;2022-12-20T05:01:20;5.55;;;2.78;;
62724;SDS011;49026;52.600;4.694;2022-12-20T05:03:45;7.40;;;3.10;;
62724;SDS011;49026;52.600;4.694;2022-12-20T05:06:12;6.75;;;2.58;;
62724;SDS011;49026;52.600;4.694;2022-12-20T05:08:37;6.45;;;2.40;;
62724;SDS011;49026;52.600;4.694;2022-12-20T05:11:03;3.97;;;2.42;;
62724;SDS011;49026;52.600;4.694;2022-12-20T05:13:29;9.68;;;3.10;;
62724;SDS011;49026;52.600;4.694;2022-12-20T05:15:55;6.22;;;2.80;;
62724;SDS011;49026;52.600;4.694;2022-12-20T05:18:20;8.18;;;2.53;;
62724;SDS011;49026;52.600;4.694;2022-12-20T05:20:46;6.28;;;2.63;;
62724;SDS011;49026;52.600;4.694;2022-12-20T05:23:12;6.55;;;2.80;;
62724;SDS011;49026;52.600;4.694;2022-12-20T05:25:56;5.78;;;2.55;;
62724;SDS011;49026;52.600;4.694;2022-12-20T05:28:29;4.85;;;2.35;;
62724;SDS011;49026;52.600;4.694;2022-12-20T05:30:55;7.32;;;3.28;;
62724;SDS011;49026;52.600;4.694;2022-12-20T05:33:25;5.28;;;3.03;;
62724;SDS011;49026;52.600;4.694;2022-12-20T05:35:50;5.10;;;2.75;;
62724;SDS011;49026;52.600;4.694;2022-12-20T05:38:16;5.80;;;3.13;;
62724;SDS011;49026;52.600;4.694;2022-12-20T05:40:41;6.40;;;3.03;;
62724;SDS011;49026;52.600;4.694;2022-12-20T05:43:06;7.22;;;3.60;;
62724;SDS011;49026;52.600;4.694;2022-12-20T05:45:32;5.68;;;3.10;;
62724;SDS011;49026;52.600;4.694;2022-12-20T05:47:58;6.00;;;3.15;;
62724;SDS011;49026;52.600;4.694;2022-12-20T05:50:23;6.18;;;2.95;;
62724;SDS011;49026;52.600;4.694;2022-12-20T05:52:51;7.65;;;3.28;;
62724;SDS011;49026;52.600;4.694;2022-12-20T05:55:17;7.25;;;3.72;;
62724;SDS011;49026;52.600;4.694;2022-12-20T05:57:44;6.78;;;3.50;;
62724;SDS011;49026;52.600;4.694;2022-12-20T06:00:12;5.13;;;2.67;;
62724;SDS011;49026;52.600;4.694;2022-12-20T06:02:38;8.75;;;3.08;;
62724;SDS011;49026;52.600;4.694;2022-12-20T06:05:04;5.68;;;2.92;;
62724;SDS011;49026;52.600;4.694;2022-12-20T06:07:30;5.32;;;3.00;;
62724;SDS011;49026;52.600;4.694;2022-12-20T06:09:58;5.78;;;3.70;;
62724;SDS011;49026;52.600;4.694;2022-12-20T06:12:23;9.30;;;3.70;;
62724;SDS011;49026;52.600;4.694;2022-12-20T06:14:51;9.73;;;3.35;;
62724;SDS011;49026;52.600;4.694;2022-12-20T06:17:16;7.00;;;3.65;;
62724;SDS011;49026;52.600;4.694;2022-12-20T06:19:42;7.20;;;3.38;;
62724;SDS011;49026;52.600;4.694;2022-12-20T06:22:08;6.82;;;3.92;;
62724;SDS011;49026;52.600;4.694;2022-12-20T06:24:36;12.45;;;4.28;;
62724;SDS011;49026;52.600;4.694;2022-12-20T06:27:03;8.45;;;3.40;;
62724;SDS011;49026;52.600;4.694;2022-12-20T06:29:30;13.15;;;4.55;;
62724;SDS011;49026;52.600;4.694;2022-12-20T06:31:56;5.47;;;2.97;;
62724;SDS011;49026;52.600;4.694;2022-12-20T06:34:22;5.43;;;3.63;;
62724;SDS011;49026;52.600;4.694;2022-12-20T06:36:47;4.95;;;2.75;;
62724;SDS011;49026;52.600;4.694;2022-12-20T06:39:12;6.45;;;2.80;;
62724;SDS011;49026;52.600;4.694;2022-12-20T06:41:40;5.88;;;2.38;;
62724;SDS011;49026;52.600;4.694;2022-12-20T06:44:06;7.93;;;3.08;;
62724;SDS011;49026;52.600;4.694;2022-12-20T06:46:32;3.92;;;2.20;;
62724;SDS011;49026;52.600;4.694;2022-12-20T06:48:57;5.75;;;3.20;;
62724;SDS011;49026;52.600;4.694;2022-12-20T06:51:23;7.45;;;3.55;;
62724;SDS011;49026;52.600;4.694;2022-12-20T06:53:51;7.10;;;2.80;;
62724;SDS011;49026;52.600;4.694;2022-12-20T06:56:17;6.38;;;3.05;;
62724;SDS011;49026;52.600;4.694;2022-12-20T06:58:43;5.70;;;2.65;;
62724;SDS011;49026;52.600;4.694;2022-12-20T07:01:12;4.93;;;3.15;;
62724;SDS011;49026;52.600;4.694;2022-12-20T07:03:40;4.28;;;2.42;;
62724;SDS011;49026;52.600;4.694;2022-12-20T07:06:05;3.47;;;2.10;;
62724;SDS011;49026;52.600;4.694;2022-12-20T07:08:31;10.65;;;2.90;;
62724;SDS011;49026;52.600;4.694;2022-12-20T07:11:02;5.47;;;2.95;;
62724;SDS011;49026;52.600;4.694;2022-12-20T07:13:28;6.28;;;2.80;;
62724;SDS011;49026;52.600;4.694;2022-12-20T07:16:02;5.38;;;2.58;;
62724;SDS011;49026;52.600;4.694;2022-12-20T07:18:27;6.28;;;2.85;;
62724;SDS011;49026;52.600;4.694;2022-12-20T07:20:57;9.82;;;3.05;;
62724;SDS011;49026;52.600;4.694;2022-12-20T07:23:23;6.88;;;2.92;;
62724;SDS011;49026;52.600;4.694;2022-12-20T07:25:54;3.92;;;1.80;;
62724;SDS011;49026;52.600;4.694;2022-12-20T07:28:21;8.23;;;2.50;;
62724;SDS011;49026;52.600;4.694;2022-12-20T07:30:47;6.57;;;2.83;;
62724;SDS011;49026;52.600;4.694;2022-12-20T07:33:13;11.68;;;3.13;;
62724;SDS011;49026;52.600;4.694;2022-12-20T07:35:43;8.77;;;3.60;;
62724;SDS011;49026;52.600;4.694;2022-12-20T07:38:11;7.60;;;2.80;;
62724;SDS011;49026;52.600;4.694;2022-12-20T07:40:43;6.13;;;2.42;;
62724;SDS011;49026;52.600;4.694;2022-12-20T07:43:09;5.28;;;2.92;;
62724;SDS011;49026;52.600;4.694;2022-12-20T07:45:39;6.47;;;2.47;;
62724;SDS011;49026;52.600;4.694;2022-12-20T07:48:04;4.55;;;2.78;;
62724;SDS011;49026;52.600;4.694;2022-12-20T07:50:30;3.60;;;2.38;;
62724;SDS011;49026;52.600;4.694;2022-12-20T07:52:57;5.68;;;2.67;;
62724;SDS011;49026;52.600;4.694;2022-12-20T07:55:23;4.90;;;2.97;;
62724;SDS011;49026;52.600;4.694;2022-12-20T07:57:53;6.28;;;3.03;;
62724;SDS011;49026;52.600;4.694;2022-12-20T08:00:21;6.53;;;2.97;;
62724;SDS011;49026;52.600;4.694;2022-12-20T08:02:48;8.07;;;3.17;;
62724;SDS011;49026;52.600;4.694;2022-12-20T08:07:53;6.70;;;2.90;;
62724;SDS011;49026;52.600;4.694;2022-12-20T08:10:22;8.50;;;3.85;;
62724;SDS011;49026;52.600;4.694;2022-12-20T08:12:50;4.82;;;2.55;;
62724;SDS011;49026;52.600;4.694;2022-12-20T08:15:16;6.03;;;3.10;;
62724;SDS011;49026;52.600;4.694;2022-12-20T08:17:43;5.82;;;2.53;;
62724;SDS011;49026;52.600;4.694;2022-12-20T08:20:08;7.90;;;3.53;;
62724;SDS011;49026;52.600;4.694;2022-12-20T08:22:34;7.30;;;2.60;;
62724;SDS011;49026;52.600;4.694;2022-12-20T08:25:00;5.90;;;3.00;;
62724;SDS011;49026;52.600;4.694;2022-12-20T08:27:25;5.80;;;2.75;;
62724;SDS011;49026;52.600;4.694;2022-12-20T08:29:51;5.78;;;2.55;;
62724;SDS011;49026;52.600;4.694;2022-12-20T08:32:16;6.18;;;2.50;;
62724;SDS011;49026;52.600;4.694;2022-12-20T08:34:41;6.03;;;2.55;;
62724;SDS011;49026;52.600;4.694;2022-12-20T08:37:07;5.60;;;2.63;;
62724;SDS011;49026;52.600;4.694;2022-12-20T08:39:32;5.78;;;2.90;;
62724;SDS011;49026;52.600;4.694;2022-12-20T08:42:00;3.75;;;2.13;;
62724;SDS011;49026;52.600;4.694;2022-12-20T08:44:28;5.15;;;2.75;;
62724;SDS011;49026;52.600;4.694;2022-12-20T08:46:54;9.63;;;2.55;;
62724;SDS011;49026;52.600;4.694;2022-12-20T08:49:19;4.18;;;2.20;;
62724;SDS011;49026;52.600;4.694;2022-12-20T08:51:44;4.97;;;2.20;;
62724;SDS011;49026;52.600;4.694;2022-12-20T08:54:12;6.82;;;2.60;;
62724;SDS011;49026;52.600;4.694;2022-12-20T08:56:37;5.00;;;1.88;;
62724;SDS011;49026;52.600;4.694;2022-12-20T08:59:02;4.45;;;1.85;;
62724;SDS011;49026;52.600;4.694;2022-12-20T09:01:31;8.23;;;2.58;;
62724;SDS011;49026;52.600;4.694;2022-12-20T09:03:58;5.95;;;2.30;;
62724;SDS011;49026;52.600;4.694;2022-12-20T09:06:23;4.47;;;2.00;;
62724;SDS011;49026;52.600;4.694;2022-12-20T09:08:51;4.78;;;2.40;;
62724;SDS011;49026;52.600;4.694;2022-12-20T09:11:21;3.65;;;1.95;;
62724;SDS011;49026;52.600;4.694;2022-12-20T09:13:50;4.50;;;2.40;;
62724;SDS011;49026;52.600;4.694;2022-12-20T09:16:18;5.05;;;2.42;;
62724;SDS011;49026;52.600;4.694;2022-12-20T09:18:52;5.95;;;2.88;;
62724;SDS011;49026;52.600;4.694;2022-12-20T09:21:21;8.20;;;2.92;;
62724;SDS011;49026;52.600;4.694;2022-12-20T09:23:48;5.32;;;2.03;;
62724;SDS011;49026;52.600;4.694;2022-12-20T09:26:15;4.93;;;2.28;;
62724;SDS011;49026;52.600;4.694;2022-12-20T09:28:44;3.95;;;2.30;;
62724;SDS011;49026;52.600;4.694;2022-12-20T09:31:14;5.60;;;2.45;;
62724;SDS011;49026;52.600;4.694;2022-12-20T09:33:41;3.08;;;2.05;;
62724;SDS011;49026;52.600;4.694;2022-12-20T09:36:10;6.40;;;2.38;;
62724;SDS011;49026;52.600;4.694;2022-12-20T09:41:03;4.95;;;2.05;;
62724;SDS011;49026;52.600;4.694;2022-12-20T09:43:33;5.32;;;2.40;;
62724;SDS011;49026;52.600;4.694;2022-12-20T09:46:09;7.05;;;2.58;;
62724;SDS011;49026;52.600;4.694;2022-12-20T09:48:43;7.13;;;2.83;;
62724;SDS011;49026;52.600;4.694;2022-12-20T09:56:32;7.32;;;2.42;;
62724;SDS011;49026;52.600;4.694;2022-12-20T09:59:03;7.82;;;2.55;;
62724;SDS011;49026;52.600;4.694;2022-12-20T10:01:31;6.28;;;2.40;;
62724;SDS011;49026;52.600;4.694;2022-12-20T10:03:58;6.57;;;2.47;;
62724;SDS011;49026;52.600;4.694;2022-12-20T10:09:09;4.88;;;2.22;;
62724;SDS011;49026;52.600;4.694;2022-12-20T10:12:03;4.55;;;1.83;;
62724;SDS011;49026;52.600;4.694;2022-12-20T10:17:37;8.25;;;2.17;;
62724;SDS011;49026;52.600;4.694;2022-12-20T10:25:41;3.35;;;2.28;;
62724;SDS011;49026;52.600;4.694;2022-12-20T10:28:12;5.57;;;2.83;;
62724;SDS011;49026;52.600;4.694;2022-12-20T10:30:39;6.28;;;2.58;;
62724;SDS011;49026;52.600;4.694;2022-12-20T10:33:08;15.63;;;3.28;;
62724;SDS011;49026;52.600;4.694;2022-12-20T10:35:43;7.35;;;2.63;;
62724;SDS011;49026;52.600;4.694;2022-12-20T10:38:11;12.52;;;3.00;;
62724;SDS011;49026;52.600;4.694;2022-12-20T10:40:44;7.50;;;2.97;;
62724;SDS011;49026;52.600;4.694;2022-12-20T10:45:40;5.85;;;2.72;;
62724;SDS011;49026;52.600;4.694;2022-12-20T10:51:33;8.35;;;2.70;;
62724;SDS011;49026;52.600;4.694;2022-12-20T10:53:51;9.05;;;3.13;;
62724;SDS011;49026;52.600;4.694;2022-12-20T10:58:53;7.28;;;2.92;;
62724;SDS011;49026;52.600;4.694;2022-12-20T11:01:42;7.88;;;3.50;;
62724;SDS011;49026;52.600;4.694;2022-12-20T11:07:20;7.88;;;3.55;;
62724;SDS011;49026;52.600;4.694;2022-12-20T11:09:51;8.63;;;3.20;;
62724;SDS011;49026;52.600;4.694;2022-12-20T11:12:23;9.23;;;3.45;;
62724;SDS011;49026;52.600;4.694;2022-12-20T11:14:48;8.95;;;3.35;;
62724;SDS011;49026;52.600;4.694;2022-12-20T11:22:47;6.28;;;2.88;;
62724;SDS011;49026;52.600;4.694;2022-12-20T11:28:17;10.75;;;3.35;;
62724;SDS011;49026;52.600;4.694;2022-12-20T11:39:31;12.70;;;3.75;;
62724;SDS011;49026;52.600;4.694;2022-12-20T11:55:26;8.15;;;3.03;;
62724;SDS011;49026;52.600;4.694;2022-12-20T11:57:59;7.70;;;2.78;;
62724;SDS011;49026;52.600;4.694;2022-12-20T12:00:30;8.27;;;3.28;;
62724;SDS011;49026;52.600;4.694;2022-12-20T12:05:46;10.70;;;3.28;;
62724;SDS011;49026;52.600;4.694;2022-12-20T12:11:19;9.05;;;2.60;;
62724;SDS011;49026;52.600;4.694;2022-12-20T12:16:26;5.45;;;2.40;;
62724;SDS011;49026;52.600;4.694;2022-12-20T12:18:58;6.53;;;2.42;;
62724;SDS011;49026;52.600;4.694;2022-12-20T12:21:26;7.60;;;2.60;;
62724;SDS011;49026;52.600;4.694;2022-12-20T12:26:39;9.93;;;2.88;;
62724;SDS011;49026;52.600;4.694;2022-12-20T12:29:08;6.30;;;2.90;;
62724;SDS011;49026;52.600;4.694;2022-12-20T12:31:45;5.68;;;2.63;;
62724;SDS011;49026;52.600;4.694;2022-12-20T12:37:29;5.70;;;2.97;;
62724;SDS011;49026;52.600;4.694;2022-12-20T12:45:59;11.00;;;2.70;;
62724;SDS011;49026;52.600;4.694;2022-12-20T12:48:41;6.72;;;3.28;;
62724;SDS011;49026;52.600;4.694;2022-12-20T12:51:14;6.57;;;3.22;;
62724;SDS011;49026;52.600;4.694;2022-12-20T12:53:52;6.00;;;2.80;;
62724;SDS011;49026;52.600;4.694;2022-12-20T13:07:25;11.43;;;3.47;;
62724;SDS011;49026;52.600;4.694;2022-12-20T13:10:00;12.55;;;3.17;;
62724;SDS011;49026;52.600;4.694;2022-12-20T13:17:58;9.25;;;3.88;;
62724;SDS011;49026;52.600;4.694;2022-12-20T13:20:34;9.68;;;3.55;;
62724;SDS011;49026;52.600;4.694;2022-12-20T13:25:36;19.00;;;4.95;;
62724;SDS011;49026;52.600;4.694;2022-12-20T13:30:44;17.80;;;4.95;;
62724;SDS011;49026;52.600;4.694;2022-12-20T13:33:24;13.57;;;4.47;;
62724;SDS011;49026;52.600;4.694;2022-12-20T13:36:03;13.70;;;4.32;;
62724;SDS011;49026;52.600;4.694;2022-12-20T13:38:53;12.63;;;4.22;;
62724;SDS011;49026;52.600;4.694;2022-12-20T13:43:48;12.13;;;4.70;;
62724;SDS011;49026;52.600;4.694;2022-12-20T13:49:11;8.05;;;3.72;;
62724;SDS011;49026;52.600;4.694;2022-12-20T13:51:45;20.52;;;5.70;;
62724;SDS011;49026;52.600;4.694;2022-12-20T13:56:46;20.73;;;6.47;;
62724;SDS011;49026;52.600;4.694;2022-12-20T14:01:49;24.60;;;6.28;;
62724;SDS011;49026;52.600;4.694;2022-12-20T14:04:17;16.08;;;5.50;;
62724;SDS011;49026;52.600;4.694;2022-12-20T14:06:49;19.00;;;6.03;;
62724;SDS011;49026;52.600;4.694;2022-12-20T14:12:08;9.95;;;5.20;;
62724;SDS011;49026;52.600;4.694;2022-12-20T14:14:37;13.85;;;5.90;;
62724;SDS011;49026;52.600;4.694;2022-12-20T14:17:26;18.27;;;6.03;;
62724;SDS011;49026;52.600;4.694;2022-12-20T14:20:11;13.60;;;4.82;;
62724;SDS011;49026;52.600;4.694;2022-12-20T14:23:24;16.13;;;4.78;;
62724;SDS011;49026;52.600;4.694;2022-12-20T14:27:59;16.05;;;6.03;;
62724;SDS011;49026;52.600;4.694;2022-12-20T14:30:25;18.55;;;6.85;;
62724;SDS011;49026;52.600;4.694;2022-12-20T14:32:54;18.63;;;6.70;;
62724;SDS011;49026;52.600;4.694;2022-12-20T14:35:21;14.05;;;6.03;;
62724;SDS011;49026;52.600;4.694;2022-12-20T14:37:54;15.35;;;6.97;;
62724;SDS011;49026;52.600;4.694;2022-12-20T14:40:22;18.25;;;5.88;;
62724;SDS011;49026;52.600;4.694;2022-12-20T14:45:18;14.88;;;5.90;;
62724;SDS011;49026;52.600;4.694;2022-12-20T14:50:37;21.58;;;8.45;;
62724;SDS011;49026;52.600;4.694;2022-12-20T14:53:10;23.15;;;8.43;;
62724;SDS011;49026;52.600;4.694;2022-12-20T14:55:46;13.90;;;7.45;;
62724;SDS011;49026;52.600;4.694;2022-12-20T14:58:28;20.02;;;8.68;;
62724;SDS011;49026;52.600;4.694;2022-12-20T15:03:23;16.85;;;7.40;;
62724;SDS011;49026;52.600;4.694;2022-12-20T15:05:53;16.92;;;8.20;;
62724;SDS011;49026;52.600;4.694;2022-12-20T15:08:32;12.73;;;6.57;;
62724;SDS011;49026;52.600;4.694;2022-12-20T15:11:02;22.45;;;8.52;;
62724;SDS011;49026;52.600;4.694;2022-12-20T15:13:44;28.88;;;8.77;;
62724;SDS011;49026;52.600;4.694;2022-12-20T15:16:14;29.95;;;8.50;;
62724;SDS011;49026;52.600;4.694;2022-12-20T15:18:44;20.42;;;9.15;;
62724;SDS011;49026;52.600;4.694;2022-12-20T15:21:32;18.48;;;9.35;;
62724;SDS011;49026;52.600;4.694;2022-12-20T15:24:02;25.75;;;10.13;;
62724;SDS011;49026;52.600;4.694;2022-12-20T15:26:38;17.70;;;8.88;;
62724;SDS011;49026;52.600;4.694;2022-12-20T15:29:04;28.40;;;9.82;;
62724;SDS011;49026;52.600;4.694;2022-12-20T15:31:32;22.45;;;10.27;;
62724;SDS011;49026;52.600;4.694;2022-12-20T15:34:00;30.17;;;10.17;;
62724;SDS011;49026;52.600;4.694;2022-12-20T15:36:29;30.35;;;10.77;;
62724;SDS011;49026;52.600;4.694;2022-12-20T15:38:55;32.03;;;9.50;;
62724;SDS011;49026;52.600;4.694;2022-12-20T15:41:24;26.60;;;10.65;;
62724;SDS011;49026;52.600;4.694;2022-12-20T15:43:53;38.15;;;10.95;;
62724;SDS011;49026;52.600;4.694;2022-12-20T15:46:21;25.42;;;10.68;;
62724;SDS011;49026;52.600;4.694;2022-12-20T15:48:47;36.03;;;10.45;;
62724;SDS011;49026;52.600;4.694;2022-12-20T15:51:16;29.52;;;10.43;;
62724;SDS011;49026;52.600;4.694;2022-12-20T15:53:49;27.88;;;9.07;;
62724;SDS011;49026;52.600;4.694;2022-12-20T15:56:16;24.67;;;10.07;;
62724;SDS011;49026;52.600;4.694;2022-12-20T15:58:44;22.45;;;10.07;;
62724;SDS011;49026;52.600;4.694;2022-12-20T16:01:12;30.08;;;9.80;;
62724;SDS011;49026;52.600;4.694;2022-12-20T16:03:42;20.88;;;9.95;;
62724;SDS011;49026;52.600;4.694;2022-12-20T16:06:09;67.13;;;10.95;;
62724;SDS011;49026;52.600;4.694;2022-12-20T16:08:36;29.30;;;10.68;;
62724;SDS011;49026;52.600;4.694;2022-12-20T16:11:05;19.73;;;9.35;;
62724;SDS011;49026;52.600;4.694;2022-12-20T16:13:41;27.08;;;9.32;;
62724;SDS011;49026;52.600;4.694;2022-12-20T16:16:11;22.75;;;10.80;;
62724;SDS011;49026;52.600;4.694;2022-12-20T16:18:40;23.00;;;10.50;;
62724;SDS011;49026;52.600;4.694;2022-12-20T16:21:09;30.65;;;10.98;;
62724;SDS011;49026;52.600;4.694;2022-12-20T16:23:57;25.00;;;11.32;;
62724;SDS011;49026;52.600;4.694;2022-12-20T16:26:23;32.33;;;11.65;;
62724;SDS011;49026;52.600;4.694;2022-12-20T16:28:52;36.75;;;12.23;;
62724;SDS011;49026;52.600;4.694;2022-12-20T16:31:21;33.53;;;13.27;;
62724;SDS011;49026;52.600;4.694;2022-12-20T16:33:55;30.90;;;12.65;;
62724;SDS011;49026;52.600;4.694;2022-12-20T16:36:21;27.20;;;11.73;;
62724;SDS011;49026;52.600;4.694;2022-12-20T16:38:50;34.92;;;11.52;;
62724;SDS011;49026;52.600;4.694;2022-12-20T16:41:27;31.13;;;12.63;;
62724;SDS011;49026;52.600;4.694;2022-12-20T16:43:55;37.28;;;13.40;;
62724;SDS011;49026;52.600;4.694;2022-12-20T16:46:24;29.27;;;13.77;;
62724;SDS011;49026;52.600;4.694;2022-12-20T16:48:51;33.28;;;12.90;;
62724;SDS011;49026;52.600;4.694;2022-12-20T16:51:21;27.42;;;12.05;;
62724;SDS011;49026;52.600;4.694;2022-12-20T16:53:48;40.58;;;12.82;;
62724;SDS011;49026;52.600;4.694;2022-12-20T16:56:13;99.32;;;13.68;;
62724;SDS011;49026;52.600;4.694;2022-12-20T16:58:39;22.73;;;10.30;;
62724;SDS011;49026;52.600;4.694;2022-12-20T17:01:04;30.15;;;10.05;;
62724;SDS011;49026;52.600;4.694;2022-12-20T17:03:30;29.70;;;11.80;;
62724;SDS011;49026;52.600;4.694;2022-12-20T17:05:55;39.80;;;12.95;;
62724;SDS011;49026;52.600;4.694;2022-12-20T17:08:21;75.75;;;12.07;;
62724;SDS011;49026;52.600;4.694;2022-12-20T17:10:46;36.95;;;12.65;;
62724;SDS011;49026;52.600;4.694;2022-12-20T17:13:12;33.70;;;11.80;;
62724;SDS011;49026;52.600;4.694;2022-12-20T17:15:38;31.50;;;11.70;;
62724;SDS011;49026;52.600;4.694;2022-12-20T17:18:04;23.83;;;11.30;;
62724;SDS011;49026;52.600;4.694;2022-12-20T17:20:30;30.42;;;11.07;;
62724;SDS011;49026;52.600;4.694;2022-12-20T17:22:57;21.98;;;9.90;;
62724;SDS011;49026;52.600;4.694;2022-12-20T17:25:27;35.10;;;12.68;;
62724;SDS011;49026;52.600;4.694;2022-12-20T17:27:54;29.75;;;12.73;;